createdAt,value
2023-04-19T00:04:04.829Z,11.93
2023-04-19T00:12:40.342Z,15.38
2023-04-19T00:16:57.975Z,17.00
2023-04-19T00:21:15.913Z,14.27
2023-04-19T00:25:36.333Z,14.68
2023-04-19T00:29:54.006Z,15.75
2023-04-19T00:34:11.566Z,13.18
2023-04-19T00:38:29.260Z,14.55
2023-04-19T00:42:46.766Z,11.95
2023-04-19T00:47:05.437Z,11.60
2023-04-19T00:51:23.433Z,13.00
2023-04-19T00:59:59.127Z,15.95
2023-04-19T01:08:35.367Z,12.43
2023-04-19T01:12:53.193Z,13.45
2023-04-19T01:17:11.608Z,13.75
2023-04-19T01:21:32.831Z,15.40
2023-04-19T01:25:50.428Z,16.02
2023-04-19T01:30:09.025Z,10.73
2023-04-19T01:34:26.537Z,10.35
2023-04-19T01:38:44.274Z,12.88
2023-04-19T01:43:01.742Z,13.43
2023-04-19T01:47:20.177Z,9.80
2023-04-19T01:51:39.273Z,12.00
2023-04-19T01:55:56.753Z,13.20
2023-04-19T02:00:15.525Z,10.02
2023-04-19T02:04:34.861Z,10.30
2023-04-19T02:08:52.855Z,10.30
2023-04-19T02:13:10.504Z,10.88
2023-04-19T02:17:28.989Z,11.13
2023-04-19T02:21:46.695Z,11.90
2023-04-19T02:26:04.386Z,9.00
2023-04-19T02:30:22.165Z,10.30
2023-04-19T02:34:40.062Z,8.63
2023-04-19T02:38:59.631Z,10.80
2023-04-19T02:43:17.155Z,13.57
2023-04-19T02:47:34.829Z,8.65
2023-04-19T02:51:53.171Z,12.63
2023-04-19T02:56:10.702Z,9.60
2023-04-19T03:00:28.468Z,8.85
2023-04-19T03:04:47.437Z,8.27
2023-04-19T03:09:05.067Z,8.77
2023-04-19T03:13:22.584Z,7.70
2023-04-19T03:17:40.362Z,7.75
2023-04-19T03:21:57.875Z,7.25
2023-04-19T03:26:15.570Z,6.22
2023-04-19T03:30:33.112Z,5.30
2023-04-19T03:34:50.914Z,7.97
2023-04-19T03:39:08.494Z,7.57
2023-04-19T03:43:26.250Z,5.70
2023-04-19T03:47:43.795Z,6.85
2023-04-19T03:52:01.439Z,7.25
2023-04-19T03:56:18.965Z,6.80
2023-04-19T04:00:37.466Z,8.00
2023-04-19T04:04:55.710Z,7.35
2023-04-19T04:13:30.960Z,6.53
2023-04-19T04:17:48.501Z,8.65
2023-04-19T04:22:07.466Z,8.38
2023-04-19T04:26:25.710Z,7.57
2023-04-19T04:30:43.452Z,11.15
2023-04-19T04:35:00.977Z,9.70
2023-04-19T04:39:19.118Z,9.68
2023-04-19T04:43:36.668Z,11.55
2023-04-19T04:47:54.355Z,13.10
2023-04-19T04:52:12.108Z,12.75
2023-04-19T04:56:31.296Z,9.02
2023-04-19T05:00:49.262Z,9.45
2023-04-19T05:09:25.129Z,14.60
2023-04-19T05:13:42.828Z,9.07
2023-04-19T05:18:00.362Z,5.88
2023-04-19T05:22:18.313Z,7.15
2023-04-19T05:26:36.097Z,5.97
2023-04-19T05:30:53.822Z,7.85
2023-04-19T05:35:11.611Z,6.40
2023-04-19T05:39:29.582Z,5.30
2023-04-19T05:43:47.134Z,2.58
2023-04-19T05:48:05.335Z,5.03
2023-04-19T05:52:22.893Z,3.22
2023-04-19T05:56:40.854Z,2.03
2023-04-19T06:00:58.439Z,2.45
2023-04-19T06:05:16.730Z,3.15
2023-04-19T06:09:34.658Z,1.52
2023-04-19T06:13:52.364Z,1.35
2023-04-19T06:18:18.970Z,2.13
2023-04-19T06:22:45.218Z,1.83
2023-04-19T06:27:02.944Z,31.08
2023-04-19T06:31:20.688Z,31.90
2023-04-19T06:35:38.610Z,1.90
2023-04-19T06:39:56.114Z,1.85
2023-04-19T06:44:14.246Z,1.65
2023-04-19T06:48:34.496Z,4.07
2023-04-19T06:52:52.257Z,12.63
2023-04-19T06:57:09.917Z,4.00
2023-04-19T07:01:27.699Z,5.22
2023-04-19T07:05:45.688Z,4.05
2023-04-19T07:10:03.666Z,3.50
2023-04-19T07:14:21.268Z,2.72
2023-04-19T07:18:39.106Z,3.65
2023-04-19T07:22:56.612Z,1.58
2023-04-19T07:27:15.031Z,2.53
2023-04-19T07:31:32.678Z,1.60
2023-04-19T07:35:50.372Z,0.85
2023-04-19T07:40:08.704Z,2.17
2023-04-19T07:44:26.324Z,1.27
2023-04-19T07:48:43.896Z,1.77
2023-04-19T07:53:01.683Z,3.28
2023-04-19T07:57:19.224Z,9.40
2023-04-19T08:01:37.492Z,3.78
2023-04-19T08:05:55.314Z,5.50
2023-04-19T08:10:13.780Z,9.23
2023-04-19T08:14:40.493Z,11.68
2023-04-19T08:19:01.744Z,5.97
2023-04-19T08:23:25.781Z,2.65
2023-04-19T08:27:47.227Z,2.35
2023-04-19T08:32:06.744Z,1.80
2023-04-19T08:36:35.953Z,3.45
2023-04-19T08:40:55.612Z,2.75
2023-04-19T08:49:41.373Z,2.45
2023-04-19T08:54:04.177Z,1.98
2023-04-19T08:58:32.869Z,1.48
2023-04-19T09:02:59.526Z,1.23
2023-04-19T09:07:28.651Z,1.55
2023-04-19T09:11:46.422Z,2.60
2023-04-19T09:16:05.781Z,1.73
2023-04-19T09:20:39.936Z,4.18
2023-04-19T09:29:21.515Z,1.98
2023-04-19T09:33:42.532Z,1.40
2023-04-19T09:42:42.229Z,1.60
2023-04-19T09:46:59.870Z,2.15
2023-04-19T09:51:18.010Z,1.98
2023-04-19T09:55:48.887Z,1.83
2023-04-19T10:00:18.612Z,2.08
2023-04-19T10:09:15.939Z,2.17
2023-04-19T10:13:33.765Z,4.82
2023-04-19T10:17:53.173Z,1.88
2023-04-19T10:22:11.772Z,1.88
2023-04-19T10:26:29.395Z,4.07
2023-04-19T10:30:56.003Z,1.57
2023-04-19T10:35:31.764Z,2.70
2023-04-19T10:39:49.274Z,7.72
2023-04-19T10:44:12.410Z,8.65
2023-04-19T10:48:30.890Z,5.00
2023-04-19T10:52:48.553Z,6.30
2023-04-19T10:57:11.660Z,6.85
2023-04-19T11:01:43.547Z,5.15
2023-04-19T11:06:21.547Z,5.43
2023-04-19T11:10:39.473Z,5.90
2023-04-19T11:15:00.157Z,6.38
2023-04-19T11:19:19.271Z,7.07
2023-04-19T11:23:37.396Z,8.20
2023-04-19T11:32:13.638Z,6.68
2023-04-19T11:36:37.023Z,6.30
2023-04-19T11:41:02.441Z,8.15
2023-04-19T11:45:46.674Z,8.68
2023-04-19T11:50:43.083Z,14.25
2023-04-19T11:55:18.736Z,11.90
2023-04-19T11:59:37.422Z,12.65
2023-04-19T12:03:59.071Z,6.70
2023-04-19T12:08:16.950Z,6.15
2023-04-19T12:12:34.595Z,14.88
2023-04-19T12:17:12.533Z,13.32
2023-04-19T12:21:34.326Z,22.77
2023-04-19T12:25:51.985Z,6.57
2023-04-19T12:30:10.130Z,5.07
2023-04-19T12:34:28.279Z,4.07
2023-04-19T12:38:46.017Z,6.25
2023-04-19T12:47:21.443Z,4.95
2023-04-19T12:51:39.172Z,6.93
2023-04-19T12:55:56.690Z,6.28
2023-04-19T13:00:14.845Z,4.75
2023-04-19T13:04:32.531Z,5.10
2023-04-19T13:08:50.970Z,5.45
2023-04-19T13:13:08.764Z,9.40
2023-04-19T13:17:26.426Z,8.90
2023-04-19T13:21:44.893Z,5.78
2023-04-19T13:26:02.721Z,6.75
2023-04-19T13:30:20.426Z,4.80
2023-04-19T13:34:40.550Z,8.07
2023-04-19T13:38:58.224Z,8.48
2023-04-19T13:43:15.864Z,6.40
2023-04-19T13:47:33.380Z,6.72
2023-04-19T13:51:51.207Z,7.22
2023-04-19T13:56:11.601Z,8.07
2023-04-19T14:00:29.399Z,7.45
2023-04-19T14:04:47.063Z,9.23
2023-04-19T14:09:04.781Z,7.38
2023-04-19T14:13:22.150Z,6.88
2023-04-19T14:17:39.920Z,7.30
2023-04-19T14:21:57.690Z,9.18
2023-04-19T14:26:15.401Z,7.75
2023-04-19T14:30:33.105Z,8.75
2023-04-19T14:34:51.715Z,14.85
2023-04-19T14:39:09.738Z,14.23
2023-04-19T14:43:27.368Z,18.60
2023-04-19T14:47:45.760Z,14.57
2023-04-19T14:52:04.940Z,17.73
2023-04-19T14:56:22.712Z,11.60
2023-04-19T15:00:40.279Z,12.07
2023-04-19T15:04:58.239Z,8.90
2023-04-19T15:09:16.586Z,14.43
2023-04-19T15:13:35.892Z,10.23
2023-04-19T15:17:53.530Z,10.23
2023-04-19T15:22:11.557Z,10.23
2023-04-19T15:31:01.706Z,12.23
2023-04-19T15:35:19.350Z,9.10
2023-04-19T15:39:36.985Z,10.45
2023-04-19T15:43:55.046Z,10.48
2023-04-19T15:48:12.911Z,9.52
2023-04-19T15:52:30.832Z,9.57
2023-04-19T16:01:12.356Z,9.23
2023-04-19T16:05:30.921Z,16.88
2023-04-19T16:09:48.446Z,9.13
2023-04-19T16:14:06.467Z,9.73
2023-04-19T16:18:24.031Z,12.40
2023-04-19T16:22:41.695Z,10.57
2023-04-19T16:26:59.205Z,8.40
2023-04-19T16:31:16.887Z,10.73
2023-04-19T16:35:34.574Z,10.77
2023-04-19T16:39:52.285Z,11.90
2023-04-19T16:44:10.071Z,9.90
2023-04-19T16:48:27.808Z,9.32
2023-04-19T16:52:45.348Z,9.55
2023-04-19T16:57:03.361Z,19.17
2023-04-19T17:05:38.545Z,11.63
2023-04-19T17:09:56.658Z,19.50
2023-04-19T17:14:14.720Z,14.23
2023-04-19T17:18:32.649Z,13.48
2023-04-19T17:22:50.191Z,18.08
2023-04-19T17:27:07.952Z,13.35
2023-04-19T17:31:25.593Z,8.20
2023-04-19T17:35:43.461Z,8.02
2023-04-19T17:40:02.158Z,10.63
2023-04-19T17:44:19.835Z,12.32
2023-04-19T17:48:37.582Z,8.77
2023-04-19T17:52:55.347Z,14.88
2023-04-19T17:57:13.067Z,22.20
2023-04-19T18:01:32.184Z,21.17
2023-04-19T18:05:49.905Z,11.13
2023-04-19T18:10:08.067Z,12.88
2023-04-19T18:14:25.941Z,8.77
2023-04-19T18:18:43.680Z,12.07
2023-04-19T18:23:01.979Z,11.10
2023-04-19T18:27:19.793Z,22.80
2023-04-19T18:31:37.630Z,11.20
2023-04-19T18:35:55.225Z,14.10
2023-04-19T18:40:13.276Z,15.32
2023-04-19T18:48:51.415Z,20.98
2023-04-19T18:53:08.945Z,13.50
2023-04-19T18:57:27.868Z,16.25
2023-04-19T19:01:46.009Z,11.90
2023-04-19T19:06:04.309Z,13.40
2023-04-19T19:10:26.689Z,10.50
2023-04-19T19:14:59.790Z,17.17
2023-04-19T19:19:17.822Z,14.35
2023-04-19T19:23:38.404Z,14.70
2023-04-19T19:28:06.200Z,14.65
2023-04-19T19:32:24.715Z,12.70
2023-04-19T19:36:43.889Z,12.80
2023-04-19T19:45:29.772Z,17.23
2023-04-19T19:50:31.358Z,16.00
2023-04-19T19:54:27.780Z,11.95
2023-04-19T19:58:50.038Z,15.50
2023-04-19T20:03:09.396Z,13.48
2023-04-19T20:07:42.314Z,16.77
2023-04-19T20:12:05.181Z,18.75
2023-04-19T20:16:23.615Z,19.92
2023-04-19T20:20:41.153Z,33.55
2023-04-19T20:25:00.034Z,41.78
2023-04-19T20:29:17.873Z,50.75
2023-04-19T20:33:35.699Z,32.83
2023-04-19T20:37:54.671Z,18.88
2023-04-19T20:42:12.280Z,14.77
2023-04-19T20:46:30.102Z,12.77
2023-04-19T20:50:47.987Z,18.05
2023-04-19T20:55:06.258Z,14.98
2023-04-19T20:59:23.809Z,26.35
2023-04-19T21:03:41.623Z,20.90
2023-04-19T21:07:59.531Z,16.98
2023-04-19T21:12:18.188Z,18.50
2023-04-19T21:16:35.839Z,15.40
2023-04-19T21:20:53.453Z,15.15
2023-04-19T21:25:12.697Z,19.67
2023-04-19T21:29:30.352Z,16.60
2023-04-19T21:33:47.943Z,14.70
2023-04-19T21:38:06.149Z,15.82
2023-04-19T21:42:23.884Z,12.75
2023-04-19T21:46:41.495Z,16.58
2023-04-19T21:51:01.561Z,16.17
2023-04-19T21:55:19.148Z,16.13
2023-04-19T21:59:38.026Z,20.67
2023-04-19T22:03:57.319Z,21.38
2023-04-19T22:08:18.269Z,21.25
2023-04-19T22:12:42.557Z,19.60
2023-04-19T22:17:06.522Z,15.10
2023-04-19T22:25:42.780Z,14.38
2023-04-19T22:30:00.496Z,15.38
2023-04-19T22:34:18.127Z,17.58
2023-04-19T22:38:35.933Z,14.00
2023-04-19T22:42:53.448Z,17.75
2023-04-19T22:47:12.260Z,15.77
2023-04-19T22:51:30.528Z,15.88
2023-04-19T22:55:48.289Z,15.90
2023-04-19T23:00:07.199Z,12.77
2023-04-19T23:04:24.593Z,16.15
2023-04-19T23:08:42.232Z,15.63
2023-04-19T23:12:59.728Z,15.27
2023-04-19T23:17:18.452Z,17.55
2023-04-19T23:21:36.380Z,15.05
2023-04-19T23:25:53.917Z,17.48
2023-04-19T23:30:12.104Z,16.77
2023-04-19T23:34:29.771Z,15.23
2023-04-19T23:38:47.498Z,15.93
2023-04-19T23:43:05.142Z,14.98
2023-04-19T23:47:23.352Z,16.58
2023-04-19T23:51:41.121Z,18.77
2023-04-19T23:55:58.710Z,16.60
